Capitol Logistics 2028

Operating for MET



KLAX
Los Angeles International Airport
Los Angeles, California
KMCI
Kansas City International Airport
Kansas City, Missouri

Activity Log

Date Flight Route Aircraft Duration
04/28/2020 CPX328 ORCKA3 LAS J146 DVC GCK J28 ICT EMP JHAWK6 B752 3h 12m
03/15/2020 CPX328 GARDY3 GARDY YELAH PGS J128 TBC J64 RSK J110 FRACA EMP B763 2h 50m
09/07/2019 CPX328 ORCKA3 LAS J146 DVC GCK J28 ICT EMP JHAWK6 B763 2h 58m

Route Details

Aircraft Information
Primary: Boeing 767-300BDSF
Backup: Boeing 757-200SF
Route Data
Distance: 1184nm
Duration: 3h 00m
Recm'd Route: ORCKA3 LAS J146 DVC GCK J28 ICT EMP JHAWK6
Origin Wx: KLAX 180153Z 27011KT 10SM FEW100 16/11 A2992 RMK AO2 SLP131 T01560106
Dest. Wx: KMCI 180153Z 29005KT 10SM OVC070 10/07 A3005 RMK AO2 SLP178 T01000067
Notes: OPF METRO AIR VIRTUAL